createdAt,value
2023-01-20T00:00:08.517Z,16.10
2023-01-20T00:02:42.174Z,17.70
2023-01-20T00:05:10.804Z,16.20
2023-01-20T00:07:39.241Z,19.10
2023-01-20T00:10:08.578Z,17.97
2023-01-20T00:12:37.184Z,19.30
2023-01-20T00:15:06.059Z,21.40
2023-01-20T00:17:34.491Z,23.30
2023-01-20T00:20:04.401Z,17.60
2023-01-20T00:22:32.989Z,23.53
2023-01-20T00:25:01.527Z,27.00
2023-01-20T00:27:29.946Z,21.07
2023-01-20T00:29:58.349Z,22.73
2023-01-20T00:32:26.783Z,26.30
2023-01-20T00:34:55.520Z,22.37
2023-01-20T00:37:25.312Z,22.93
2023-01-20T00:39:53.722Z,26.50
2023-01-20T00:42:22.298Z,21.03
2023-01-20T00:44:50.800Z,24.70
2023-01-20T00:47:20.960Z,28.40
2023-01-20T00:49:49.722Z,25.83
2023-01-20T00:52:18.855Z,22.33
2023-01-20T00:54:48.635Z,27.27
2023-01-20T00:57:17.022Z,25.33
2023-01-20T00:59:45.454Z,25.97
2023-01-20T01:02:13.944Z,28.40
2023-01-20T01:04:42.509Z,20.77
2023-01-20T01:07:11.419Z,24.50
2023-01-20T01:09:39.874Z,26.93
2023-01-20T01:12:10.000Z,24.07
2023-01-20T01:14:38.394Z,24.30
2023-01-20T01:17:06.889Z,21.97
2023-01-20T01:19:35.270Z,20.60
2023-01-20T01:22:03.685Z,24.53
2023-01-20T01:24:32.155Z,22.07
2023-01-20T01:27:00.577Z,21.73
2023-01-20T01:29:30.415Z,24.93
2023-01-20T01:31:59.025Z,22.20
2023-01-20T01:34:27.432Z,20.83
2023-01-20T01:36:55.826Z,21.83
2023-01-20T01:39:24.293Z,20.40
2023-01-20T01:41:52.718Z,22.00
2023-01-20T01:44:21.915Z,22.17
2023-01-20T01:46:51.747Z,20.10
2023-01-20T01:49:22.676Z,23.43
2023-01-20T01:51:53.076Z,23.77
2023-01-20T01:54:23.279Z,28.23
2023-01-20T01:56:52.890Z,26.43
2023-01-20T01:59:21.956Z,23.43
2023-01-20T02:01:53.040Z,24.13
2023-01-20T02:04:22.468Z,24.33
2023-01-20T02:06:51.706Z,26.07
2023-01-20T02:09:20.286Z,30.03
2023-01-20T02:11:49.793Z,31.03
2023-01-20T02:14:18.517Z,24.13
2023-01-20T02:16:55.530Z,26.17
2023-01-20T02:19:35.625Z,23.07
2023-01-20T02:22:09.641Z,22.53
2023-01-20T02:24:55.844Z,17.50
2023-01-20T02:27:32.918Z,19.07
2023-01-20T02:30:12.237Z,18.33
2023-01-20T02:32:47.880Z,20.73
2023-01-20T02:35:20.159Z,19.73
2023-01-20T02:37:49.528Z,19.30
2023-01-20T02:40:22.929Z,20.17
2023-01-20T02:42:56.888Z,20.63
2023-01-20T02:45:27.830Z,19.80
2023-01-20T02:47:59.121Z,19.87
2023-01-20T02:50:30.852Z,20.50
2023-01-20T02:53:01.226Z,18.03
2023-01-20T02:55:31.650Z,19.67
2023-01-20T02:58:02.763Z,15.50
2023-01-20T03:00:34.710Z,15.87
2023-01-20T03:03:08.273Z,18.00
2023-01-20T03:05:41.687Z,20.50
2023-01-20T03:08:12.483Z,19.40
2023-01-20T03:10:42.919Z,19.50
2023-01-20T03:13:13.779Z,19.77
2023-01-20T03:15:47.540Z,19.30
2023-01-20T03:18:17.454Z,20.67
2023-01-20T03:20:46.085Z,20.20
2023-01-20T03:23:14.483Z,21.50
2023-01-20T03:25:43.145Z,19.27
2023-01-20T03:28:11.717Z,17.20
2023-01-20T03:30:40.249Z,16.97
2023-01-20T03:33:09.435Z,20.53
2023-01-20T03:35:39.857Z,19.67
2023-01-20T03:38:08.442Z,17.87
2023-01-20T03:40:40.476Z,19.10
2023-01-20T03:43:13.254Z,17.23
2023-01-20T03:45:44.240Z,18.27
2023-01-20T03:48:15.498Z,15.63
2023-01-20T03:50:48.281Z,15.33
2023-01-20T03:53:23.967Z,16.10
2023-01-20T03:55:54.120Z,16.27
2023-01-20T03:58:25.514Z,14.13
2023-01-20T04:00:55.190Z,16.43
2023-01-20T04:03:25.178Z,14.60
2023-01-20T04:05:55.182Z,20.30
2023-01-20T04:08:26.467Z,19.17
2023-01-20T04:10:54.901Z,14.97
2023-01-20T04:13:23.308Z,15.37
2023-01-20T04:15:52.047Z,17.03
2023-01-20T04:18:22.170Z,16.20
2023-01-20T04:20:52.064Z,15.87
2023-01-20T04:23:24.049Z,18.40
2023-01-20T04:25:52.541Z,17.67
2023-01-20T04:28:20.989Z,16.60
2023-01-20T04:30:49.772Z,18.43
2023-01-20T04:33:18.277Z,18.97
2023-01-20T04:35:46.902Z,19.03
2023-01-20T04:38:15.336Z,19.00
2023-01-20T04:40:45.195Z,18.53
2023-01-20T04:43:13.817Z,18.47
2023-01-20T04:45:42.834Z,22.10
2023-01-20T04:48:11.717Z,18.60
2023-01-20T04:50:40.662Z,20.97
2023-01-20T04:53:09.728Z,23.43
2023-01-20T04:55:38.189Z,21.80
2023-01-20T04:58:08.045Z,22.43
2023-01-20T05:00:36.471Z,24.10
2023-01-20T05:03:06.211Z,22.40
2023-01-20T05:05:35.065Z,24.00
2023-01-20T05:08:04.797Z,22.80
2023-01-20T05:10:33.722Z,24.70
2023-01-20T05:13:02.822Z,24.60
2023-01-20T05:15:33.029Z,26.70
2023-01-20T05:18:01.919Z,25.23
2023-01-20T05:20:30.418Z,24.87
2023-01-20T05:23:01.383Z,23.27
2023-01-20T05:25:30.307Z,24.37
2023-01-20T05:28:00.145Z,24.17
2023-01-20T05:30:29.809Z,22.97
2023-01-20T05:32:59.805Z,26.70
2023-01-20T05:35:28.615Z,25.10
2023-01-20T05:37:57.462Z,26.77
2023-01-20T05:40:25.901Z,30.40
2023-01-20T05:42:54.343Z,26.17
2023-01-20T05:45:22.807Z,27.00
2023-01-20T05:47:56.150Z,26.43
2023-01-20T05:50:26.292Z,33.77
2023-01-20T05:52:54.773Z,36.83
2023-01-20T05:55:23.376Z,33.27
2023-01-20T05:57:51.766Z,31.07
2023-01-20T06:00:20.783Z,31.17
2023-01-20T06:02:49.256Z,30.83
2023-01-20T06:05:18.091Z,33.60
2023-01-20T06:07:49.732Z,32.17
2023-01-20T06:10:18.735Z,38.33
2023-01-20T06:12:53.394Z,34.73
2023-01-20T06:15:23.685Z,33.63
2023-01-20T06:17:52.173Z,36.40
2023-01-20T06:20:21.246Z,33.70
2023-01-20T06:22:51.090Z,31.83
2023-01-20T06:25:19.575Z,32.50
2023-01-20T06:27:48.312Z,33.73
2023-01-20T06:30:17.174Z,32.27
2023-01-20T06:32:47.615Z,35.87
2023-01-20T06:35:17.230Z,37.33
2023-01-20T06:37:47.659Z,36.93
2023-01-20T06:40:17.955Z,38.53
2023-01-20T06:42:48.009Z,32.30
2023-01-20T06:45:17.371Z,33.20
2023-01-20T06:47:45.800Z,33.50
2023-01-20T06:50:14.293Z,38.63
2023-01-20T06:52:42.680Z,38.00
2023-01-20T06:55:11.817Z,31.73
2023-01-20T06:57:41.837Z,27.93
2023-01-20T07:00:25.763Z,27.43
2023-01-20T07:02:54.310Z,26.93
2023-01-20T07:05:22.807Z,25.37
2023-01-20T07:07:51.550Z,21.47
2023-01-20T07:10:20.136Z,19.83
2023-01-20T07:12:49.909Z,24.93
2023-01-20T07:15:18.537Z,28.90
2023-01-20T07:17:46.908Z,25.53
2023-01-20T07:20:15.456Z,23.33
2023-01-20T07:22:43.956Z,26.47
2023-01-20T07:25:13.063Z,27.00
2023-01-20T07:27:42.369Z,24.60
2023-01-20T07:30:12.985Z,29.63
2023-01-20T07:32:41.519Z,24.23
2023-01-20T07:35:10.366Z,25.77
2023-01-20T07:37:38.962Z,28.47
2023-01-20T07:40:08.451Z,28.00
2023-01-20T07:42:38.736Z,26.10
2023-01-20T07:45:07.788Z,26.87
2023-01-20T07:47:37.664Z,24.87
2023-01-20T07:50:06.442Z,33.83
2023-01-20T07:52:35.015Z,28.97
2023-01-20T07:55:03.681Z,30.67
2023-01-20T07:57:32.119Z,31.67
2023-01-20T08:00:00.623Z,26.47
2023-01-20T08:02:29.155Z,27.23
2023-01-20T08:04:59.265Z,27.90
2023-01-20T08:07:27.846Z,25.77
2023-01-20T08:09:56.434Z,24.47
2023-01-20T08:12:24.870Z,26.23
2023-01-20T08:14:53.287Z,28.30
2023-01-20T08:17:21.930Z,21.23
2023-01-20T08:19:50.472Z,24.80
2023-01-20T08:22:20.387Z,24.17
2023-01-20T08:24:48.790Z,25.80
2023-01-20T08:27:17.336Z,22.13
2023-01-20T08:29:46.092Z,22.33
2023-01-20T08:32:14.722Z,21.97
2023-01-20T08:34:43.360Z,24.80
2023-01-20T08:37:12.024Z,24.33
2023-01-20T08:39:42.093Z,21.97
2023-01-20T08:42:10.499Z,19.50
2023-01-20T08:44:38.935Z,27.37
2023-01-20T08:47:07.495Z,20.73
2023-01-20T08:49:36.146Z,22.10
2023-01-20T08:52:04.748Z,26.67
2023-01-20T08:54:34.657Z,19.80
2023-01-20T08:57:04.421Z,20.53
2023-01-20T08:59:32.973Z,19.43
2023-01-20T09:02:01.567Z,20.33
2023-01-20T09:04:30.898Z,19.80
2023-01-20T09:06:59.292Z,23.17
2023-01-20T09:09:27.817Z,20.03
2023-01-20T09:11:56.242Z,19.60
2023-01-20T09:14:26.898Z,21.47
2023-01-20T09:16:55.348Z,19.97
2023-01-20T09:19:24.022Z,23.37
2023-01-20T09:21:52.635Z,30.83
2023-01-20T09:24:21.052Z,20.17
2023-01-20T09:26:49.594Z,22.53
2023-01-20T09:29:18.859Z,21.23
2023-01-20T09:31:51.033Z,22.47
2023-01-20T09:34:23.147Z,24.83
2023-01-20T09:36:52.456Z,23.23
2023-01-20T09:39:41.990Z,25.40
2023-01-20T09:42:37.061Z,28.57
2023-01-20T09:45:25.028Z,26.77
2023-01-20T09:48:03.586Z,22.53
2023-01-20T09:50:54.230Z,28.63
2023-01-20T09:53:32.732Z,28.03
2023-01-20T09:56:02.974Z,24.60
2023-01-20T09:58:34.513Z,23.43
2023-01-20T10:01:08.847Z,27.77
2023-01-20T10:03:41.993Z,27.27
2023-01-20T10:06:12.927Z,30.07
2023-01-20T10:09:03.734Z,26.27
2023-01-20T10:11:38.322Z,30.53
2023-01-20T10:14:15.070Z,32.23
2023-01-20T10:16:49.687Z,30.47
2023-01-20T10:19:27.269Z,26.97
2023-01-20T10:22:04.837Z,36.77
2023-01-20T10:24:36.532Z,32.97
2023-01-20T10:27:05.905Z,31.50
2023-01-20T10:29:37.356Z,27.33
2023-01-20T10:32:13.397Z,26.93
2023-01-20T10:34:47.360Z,29.30
2023-01-20T10:37:16.468Z,30.90
2023-01-20T10:39:50.913Z,31.77
2023-01-20T10:42:20.173Z,32.93
2023-01-20T10:44:51.036Z,32.27
2023-01-20T10:47:43.182Z,35.90
2023-01-20T10:50:51.316Z,31.97
2023-01-20T10:53:36.982Z,30.17
2023-01-20T10:56:15.669Z,31.73
2023-01-20T10:58:46.715Z,30.63
2023-01-20T11:01:17.638Z,29.77
2023-01-20T11:03:48.592Z,43.43
2023-01-20T11:06:21.366Z,35.90
2023-01-20T11:08:50.080Z,35.07
2023-01-20T11:11:20.532Z,37.40
2023-01-20T11:13:51.604Z,33.70
2023-01-20T11:16:23.121Z,32.83
2023-01-20T11:18:57.112Z,35.13
2023-01-20T11:21:28.097Z,38.90
2023-01-20T11:24:02.985Z,31.37
2023-01-20T11:26:34.538Z,30.53
2023-01-20T11:29:04.144Z,32.83
2023-01-20T11:31:38.822Z,36.80
2023-01-20T11:34:26.074Z,35.07
2023-01-20T11:37:17.882Z,36.20
2023-01-20T11:39:58.144Z,37.77
2023-01-20T11:42:28.663Z,37.03
2023-01-20T11:45:15.214Z,39.57
2023-01-20T11:47:48.911Z,39.23
2023-01-20T11:50:25.316Z,41.17
2023-01-20T11:53:12.901Z,38.63
2023-01-20T11:55:47.109Z,42.50
2023-01-20T11:58:19.706Z,39.83
2023-01-20T12:00:49.216Z,40.10
2023-01-20T12:03:26.903Z,39.80
2023-01-20T12:05:57.928Z,38.17
2023-01-20T12:08:30.034Z,33.10
2023-01-20T12:11:01.477Z,50.17
2023-01-20T12:13:32.296Z,38.03
2023-01-20T12:16:02.954Z,36.73
2023-01-20T12:18:36.632Z,38.93
2023-01-20T12:21:09.316Z,34.97
2023-01-20T12:23:45.739Z,36.50
2023-01-20T12:26:15.987Z,42.93
2023-01-20T12:28:49.077Z,38.10
2023-01-20T12:31:20.321Z,45.90
2023-01-20T12:33:51.770Z,39.97
2023-01-20T12:36:38.489Z,30.03
2023-01-20T12:39:17.510Z,31.07
2023-01-20T12:41:56.935Z,35.03
2023-01-20T12:44:26.422Z,29.37
2023-01-20T12:47:00.604Z,32.03
2023-01-20T12:49:45.198Z,30.50
2023-01-20T12:52:28.568Z,27.93
2023-01-20T12:55:07.820Z,25.43
2023-01-20T12:57:41.133Z,24.67
2023-01-20T13:00:17.776Z,28.27
2023-01-20T13:03:11.879Z,28.77
2023-01-20T13:05:45.929Z,32.13
2023-01-20T13:08:19.628Z,32.90
2023-01-20T13:10:57.952Z,30.77
2023-01-20T13:13:32.718Z,28.87
2023-01-20T13:16:03.851Z,28.07
2023-01-20T13:18:36.946Z,24.80
2023-01-20T13:21:06.853Z,25.97
2023-01-20T13:23:37.157Z,22.37
2023-01-20T13:26:07.883Z,21.67
2023-01-20T13:28:36.358Z,25.17
2023-01-20T13:31:24.863Z,27.00
2023-01-20T13:33:53.800Z,25.27
2023-01-20T13:36:23.331Z,23.47
2023-01-20T13:38:52.705Z,24.00
2023-01-20T13:41:42.789Z,30.53
2023-01-20T13:44:26.200Z,24.40
2023-01-20T13:46:56.017Z,23.80
2023-01-20T13:49:26.955Z,22.57
2023-01-20T13:51:56.592Z,24.53
2023-01-20T13:54:38.990Z,23.27
2023-01-20T13:57:32.961Z,23.17
2023-01-20T14:00:01.726Z,26.07
2023-01-20T14:02:41.385Z,27.13
2023-01-20T14:05:23.336Z,29.47
2023-01-20T14:07:53.317Z,22.37
2023-01-20T14:10:22.173Z,27.23
2023-01-20T14:12:50.697Z,23.37
2023-01-20T14:15:32.273Z,24.40
2023-01-20T14:18:02.438Z,26.97
2023-01-20T14:20:31.979Z,25.33
2023-01-20T14:23:15.273Z,28.93
2023-01-20T14:25:43.783Z,25.50
2023-01-20T14:28:20.546Z,24.13
2023-01-20T14:30:50.868Z,23.90
2023-01-20T14:33:21.499Z,28.10
2023-01-20T14:35:50.323Z,21.63
2023-01-20T14:38:19.471Z,20.43
2023-01-20T14:40:50.827Z,20.43
2023-01-20T14:43:20.590Z,24.50
2023-01-20T14:45:51.601Z,23.47
2023-01-20T14:48:33.836Z,25.90
2023-01-20T14:51:04.635Z,25.43
2023-01-20T14:53:34.128Z,26.67
2023-01-20T14:56:03.591Z,25.33
2023-01-20T14:58:32.902Z,24.90
2023-01-20T15:01:02.901Z,30.53
2023-01-20T15:03:33.090Z,27.90
2023-01-20T15:06:02.812Z,29.17
2023-01-20T15:08:57.016Z,28.33
2023-01-20T15:11:31.386Z,28.67
2023-01-20T15:14:13.638Z,29.13
2023-01-20T15:16:46.615Z,22.40
2023-01-20T15:19:33.455Z,23.07
2023-01-20T15:22:31.848Z,24.83
2023-01-20T15:25:14.353Z,24.47
2023-01-20T15:27:44.092Z,23.13
2023-01-20T15:30:21.103Z,23.80
2023-01-20T15:32:50.323Z,25.47
2023-01-20T15:35:22.824Z,27.70
2023-01-20T15:37:51.831Z,24.80
2023-01-20T15:40:22.468Z,25.23
2023-01-20T15:42:51.142Z,23.97
2023-01-20T15:45:20.257Z,21.13
2023-01-20T15:47:49.761Z,21.77
2023-01-20T15:50:19.772Z,23.10
2023-01-20T15:52:49.488Z,20.57
2023-01-20T15:55:19.229Z,23.43
2023-01-20T15:57:51.594Z,21.70
2023-01-20T16:00:21.253Z,22.63
2023-01-20T16:02:49.814Z,20.50
2023-01-20T16:05:18.270Z,18.90
2023-01-20T16:07:47.830Z,20.47
2023-01-20T16:10:18.185Z,18.43
2023-01-20T16:12:49.565Z,18.10
2023-01-20T16:15:24.054Z,19.60
2023-01-20T16:17:54.166Z,22.83
2023-01-20T16:20:24.260Z,18.87
2023-01-20T16:22:52.968Z,17.37
2023-01-20T16:25:21.682Z,14.67
2023-01-20T16:27:51.596Z,17.83
2023-01-20T16:30:21.097Z,18.10
2023-01-20T16:32:49.827Z,20.30
2023-01-20T16:35:19.708Z,23.43
2023-01-20T16:37:49.000Z,17.13
2023-01-20T16:40:19.189Z,15.33
2023-01-20T16:42:48.247Z,20.90
2023-01-20T16:45:28.664Z,16.60
2023-01-20T16:47:57.491Z,21.97
2023-01-20T16:50:28.360Z,19.47
2023-01-20T16:52:56.930Z,22.33
2023-01-20T16:55:25.626Z,17.83
2023-01-20T16:57:54.347Z,15.80
2023-01-20T17:00:23.719Z,17.67
2023-01-20T17:02:54.014Z,17.00
2023-01-20T17:05:25.610Z,15.03
2023-01-20T17:07:54.511Z,20.00
2023-01-20T17:10:23.248Z,15.67
2023-01-20T17:12:53.148Z,15.87
2023-01-20T17:15:21.539Z,17.70
2023-01-20T17:17:50.298Z,22.60
2023-01-20T17:20:20.550Z,20.10
2023-01-20T17:22:49.774Z,19.93
2023-01-20T17:25:18.330Z,22.37
2023-01-20T17:27:47.009Z,21.90
2023-01-20T17:30:16.753Z,21.70
2023-01-20T17:32:48.288Z,21.23
2023-01-20T17:35:16.915Z,20.40
2023-01-20T17:37:46.684Z,21.07
2023-01-20T17:40:16.065Z,18.97
2023-01-20T17:42:46.417Z,21.77
2023-01-20T17:45:14.974Z,23.00
2023-01-20T17:47:43.412Z,19.37
2023-01-20T17:50:12.537Z,21.23
2023-01-20T17:52:41.360Z,19.93
2023-01-20T17:55:12.057Z,21.83
2023-01-20T17:57:40.451Z,24.00
2023-01-20T18:00:09.661Z,24.27
2023-01-20T18:02:38.106Z,19.87
2023-01-20T18:05:07.345Z,22.23
2023-01-20T18:07:35.752Z,22.57
2023-01-20T18:10:04.697Z,21.60
2023-01-20T18:12:34.532Z,28.17
2023-01-20T18:15:02.988Z,27.97
2023-01-20T18:17:34.242Z,25.87
2023-01-20T18:20:03.189Z,24.23
2023-01-20T18:22:33.051Z,26.37
2023-01-20T18:25:02.615Z,26.50
2023-01-20T18:27:31.226Z,25.97
2023-01-20T18:30:01.130Z,27.63
2023-01-20T18:32:29.986Z,26.60
2023-01-20T18:34:58.440Z,30.10
2023-01-20T18:37:27.009Z,25.53
2023-01-20T18:39:55.528Z,26.03
2023-01-20T18:42:24.289Z,26.70
2023-01-20T18:44:52.965Z,29.43
2023-01-20T18:47:23.148Z,28.20
2023-01-20T18:49:51.595Z,24.10
2023-01-20T18:52:20.205Z,25.83
2023-01-20T18:54:48.689Z,28.53
2023-01-20T18:57:17.257Z,26.77
2023-01-20T18:59:45.723Z,26.97
2023-01-20T19:02:14.149Z,23.70
2023-01-20T19:04:43.898Z,24.97
2023-01-20T19:07:12.315Z,26.10
2023-01-20T19:09:40.720Z,30.43
2023-01-20T19:12:09.527Z,32.77
2023-01-20T19:14:37.963Z,31.50
2023-01-20T19:17:06.398Z,24.10
2023-01-20T19:19:34.857Z,29.93
2023-01-20T19:22:06.055Z,26.87
2023-01-20T19:24:35.190Z,28.97
2023-01-20T19:27:03.806Z,30.90
2023-01-20T19:29:32.341Z,31.67
2023-01-20T19:32:00.733Z,29.73
2023-01-20T19:34:29.148Z,28.47
2023-01-20T19:36:59.897Z,29.17
2023-01-20T19:39:29.724Z,27.60
2023-01-20T19:41:59.400Z,29.57
2023-01-20T19:44:27.932Z,33.33
2023-01-20T19:46:58.873Z,34.33
2023-01-20T19:49:27.600Z,33.30
2023-01-20T19:51:56.043Z,30.50
2023-01-20T19:54:28.472Z,28.93
2023-01-20T19:56:58.280Z,28.33
2023-01-20T19:59:26.952Z,31.87
2023-01-20T20:01:55.416Z,28.70
2023-01-20T20:04:25.384Z,30.50
2023-01-20T20:06:53.913Z,27.00
2023-01-20T20:09:23.503Z,30.87
2023-01-20T20:11:52.400Z,31.77
2023-01-20T20:14:23.416Z,30.77
2023-01-20T20:16:51.929Z,31.30
2023-01-20T20:19:21.670Z,32.33
2023-01-20T20:21:50.713Z,35.80
2023-01-20T20:24:20.120Z,33.27
2023-01-20T20:26:49.467Z,33.50
2023-01-20T20:29:18.667Z,30.67
2023-01-20T20:31:48.760Z,35.77
2023-01-20T20:34:18.058Z,35.00
2023-01-20T20:36:46.902Z,32.23
2023-01-20T20:39:16.848Z,31.67
2023-01-20T20:41:45.838Z,33.27
2023-01-20T20:44:14.709Z,34.03
2023-01-20T20:46:43.591Z,35.10
2023-01-20T20:49:14.681Z,33.60
2023-01-20T20:51:43.362Z,35.27
2023-01-20T20:54:13.132Z,32.80
2023-01-20T20:56:41.979Z,36.77
2023-01-20T20:59:11.119Z,33.50
2023-01-20T21:01:39.742Z,35.63
2023-01-20T21:04:08.791Z,30.90
2023-01-20T21:06:38.774Z,37.13
2023-01-20T21:09:07.188Z,34.43
2023-01-20T21:11:37.864Z,36.93
2023-01-20T21:14:07.291Z,34.67
2023-01-20T21:16:35.811Z,30.93
2023-01-20T21:19:05.124Z,34.83
2023-01-20T21:21:33.908Z,28.83
2023-01-20T21:24:04.299Z,33.93
2023-01-20T21:26:33.833Z,35.43
2023-01-20T21:29:03.841Z,34.63
2023-01-20T21:31:32.549Z,32.77
2023-01-20T21:34:01.281Z,31.00
2023-01-20T21:36:30.555Z,36.73
2023-01-20T21:38:59.927Z,33.07
2023-01-20T21:41:29.669Z,38.70
2023-01-20T21:44:16.854Z,39.03
2023-01-20T21:46:45.539Z,36.47
2023-01-20T21:49:31.763Z,39.40
2023-01-20T21:52:18.068Z,44.87
2023-01-20T21:54:46.775Z,36.73
2023-01-20T21:57:16.664Z,37.77
2023-01-20T21:59:45.927Z,39.93
2023-01-20T22:02:15.361Z,38.07
2023-01-20T22:04:46.227Z,43.83
2023-01-20T22:07:16.709Z,35.80
2023-01-20T22:09:45.352Z,39.70
2023-01-20T22:12:14.215Z,43.77
2023-01-20T22:14:44.175Z,36.37
2023-01-20T22:17:13.324Z,44.13
2023-01-20T22:19:41.961Z,40.20
2023-01-20T22:22:10.573Z,38.60
2023-01-20T22:24:39.151Z,42.93
2023-01-20T22:27:07.583Z,41.37
2023-01-20T22:29:36.352Z,45.50
2023-01-20T22:32:06.336Z,38.77
2023-01-20T22:34:34.909Z,38.17
2023-01-20T22:37:03.938Z,39.60
2023-01-20T22:39:32.355Z,48.47
2023-01-20T22:42:00.874Z,40.60
2023-01-20T22:44:29.234Z,43.67
2023-01-20T22:46:58.099Z,41.67
2023-01-20T22:49:29.905Z,41.90
2023-01-20T22:51:58.337Z,41.33
2023-01-20T22:54:26.795Z,42.97
2023-01-20T22:56:55.278Z,40.23
2023-01-20T22:59:23.668Z,45.37
2023-01-20T23:01:52.877Z,38.57
2023-01-20T23:04:21.358Z,35.53
2023-01-20T23:06:51.402Z,38.73
2023-01-20T23:09:19.815Z,41.53
2023-01-20T23:11:49.431Z,38.77
2023-01-20T23:14:17.933Z,34.80
2023-01-20T23:16:46.408Z,38.43
2023-01-20T23:19:14.853Z,37.23
2023-01-20T23:21:43.422Z,38.37
2023-01-20T23:24:13.134Z,43.60
2023-01-20T23:26:41.556Z,48.50
2023-01-20T23:29:10.506Z,42.00
2023-01-20T23:31:38.680Z,38.30
2023-01-20T23:34:07.138Z,43.13
2023-01-20T23:36:35.279Z,39.63
2023-01-20T23:39:03.575Z,40.27
2023-01-20T23:41:33.053Z,38.60
2023-01-20T23:44:01.191Z,36.67
2023-01-20T23:46:29.306Z,37.53
2023-01-20T23:48:57.397Z,35.23
2023-01-20T23:51:25.537Z,35.20
2023-01-20T23:53:53.595Z,35.03
2023-01-20T23:56:24.693Z,36.43
2023-01-20T23:58:54.241Z,39.13
